sensor_id;sensor_type;location;lat;lon;timestamp;temperature;humidity
31597;DHT22;18201;50.978;7.034;2022-09-01T04:40:29;15.20;99.90
31597;DHT22;18201;50.978;7.034;2022-09-01T04:41:31;15.20;99.90
31597;DHT22;18201;50.978;7.034;2022-09-01T04:42:33;15.20;99.90
31597;DHT22;18201;50.978;7.034;2022-09-01T04:43:35;15.10;99.90
31597;DHT22;18201;50.978;7.034;2022-09-01T04:44:37;15.20;99.90
31597;DHT22;18201;50.978;7.034;2022-09-01T04:45:39;15.10;99.90
31597;DHT22;18201;50.978;7.034;2022-09-01T04:46:41;15.20;99.90
31597;DHT22;18201;50.978;7.034;2022-09-01T04:47:45;15.10;99.90
31597;DHT22;18201;50.978;7.034;2022-09-01T04:48:50;15.10;99.90
31597;DHT22;18201;50.978;7.034;2022-09-01T04:49:53;15.10;99.90
31597;DHT22;18201;50.978;7.034;2022-09-01T04:50:57;15.10;99.90
31597;DHT22;18201;50.978;7.034;2022-09-01T04:51:59;15.10;99.90
31597;DHT22;18201;50.978;7.034;2022-09-01T04:53:01;15.00;99.90
31597;DHT22;18201;50.978;7.034;2022-09-01T04:54:05;15.00;99.90
31597;DHT22;18201;50.978;7.034;2022-09-01T04:55:14;15.10;99.90
31597;DHT22;18201;50.978;7.034;2022-09-01T04:56:19;15.10;99.90
31597;DHT22;18201;50.978;7.034;2022-09-01T04:57:22;15.00;99.90
31597;DHT22;18201;50.978;7.034;2022-09-01T04:58:28;15.00;99.90
31597;DHT22;18201;50.978;7.034;2022-09-01T04:59:30;15.00;99.90
31597;DHT22;18201;50.978;7.034;2022-09-01T05:00:32;15.00;99.90
31597;DHT22;18201;50.978;7.034;2022-09-01T05:01:34;15.00;99.90
31597;DHT22;18201;50.978;7.034;2022-09-01T05:02:42;15.00;99.90
31597;DHT22;18201;50.978;7.034;2022-09-01T05:03:47;15.00;99.90
31597;DHT22;18201;50.978;7.034;2022-09-01T05:04:56;15.00;99.90
31597;DHT22;18201;50.978;7.034;2022-09-01T05:05:58;15.00;99.90
31597;DHT22;18201;50.978;7.034;2022-09-01T05:07:04;15.00;99.90
31597;DHT22;18201;50.978;7.034;2022-09-01T05:08:09;15.00;99.90
31597;DHT22;18201;50.978;7.034;2022-09-01T05:09:15;15.00;99.90
31597;DHT22;18201;50.978;7.034;2022-09-01T05:10:18;15.00;99.90
31597;DHT22;18201;50.978;7.034;2022-09-01T05:11:22;15.00;99.90
31597;DHT22;18201;50.978;7.034;2022-09-01T05:12:25;15.00;99.90
31597;DHT22;18201;50.978;7.034;2022-09-01T05:13:27;15.00;99.90
31597;DHT22;18201;50.978;7.034;2022-09-01T05:14:29;15.00;99.90
31597;DHT22;18201;50.978;7.034;2022-09-01T05:15:30;15.00;99.90
31597;DHT22;18201;50.978;7.034;2022-09-01T05:16:33;15.00;99.90
31597;DHT22;18201;50.978;7.034;2022-09-01T05:17:35;15.00;99.90
31597;DHT22;18201;50.978;7.034;2022-09-01T05:18:38;15.00;99.90
31597;DHT22;18201;50.978;7.034;2022-09-01T05:19:42;15.00;99.90
31597;DHT22;18201;50.978;7.034;2022-09-01T05:20:44;15.00;99.90
31597;DHT22;18201;50.978;7.034;2022-09-01T05:21:46;15.00;99.90
31597;DHT22;18201;50.978;7.034;2022-09-01T05:22:49;15.00;99.90
31597;DHT22;18201;50.978;7.034;2022-09-01T05:23:55;15.00;99.90
31597;DHT22;18201;50.978;7.034;2022-09-01T05:24:57;15.00;99.90
31597;DHT22;18201;50.978;7.034;2022-09-01T05:26:14;15.00;99.90
31597;DHT22;18201;50.978;7.034;2022-09-01T05:27:18;15.00;99.90
31597;DHT22;18201;50.978;7.034;2022-09-01T05:28:22;15.00;99.90
31597;DHT22;18201;50.978;7.034;2022-09-01T05:29:25;15.00;99.90
31597;DHT22;18201;50.978;7.034;2022-09-01T05:30:27;15.00;99.90
31597;DHT22;18201;50.978;7.034;2022-09-01T05:31:29;15.00;99.90
31597;DHT22;18201;50.978;7.034;2022-09-01T05:32:34;15.10;99.90
31597;DHT22;18201;50.978;7.034;2022-09-01T05:33:36;15.00;99.90
31597;DHT22;18201;50.978;7.034;2022-09-01T05:34:45;15.00;99.90
31597;DHT22;18201;50.978;7.034;2022-09-01T05:35:53;15.00;99.90
31597;DHT22;18201;50.978;7.034;2022-09-01T05:36:58;15.00;99.90
31597;DHT22;18201;50.978;7.034;2022-09-01T05:38:01;15.10;99.90
31597;DHT22;18201;50.978;7.034;2022-09-01T05:39:04;15.10;99.90
31597;DHT22;18201;50.978;7.034;2022-09-01T05:40:08;15.10;99.90
31597;DHT22;18201;50.978;7.034;2022-09-01T05:41:16;15.10;99.90
31597;DHT22;18201;50.978;7.034;2022-09-01T05:42:21;15.10;99.90
31597;DHT22;18201;50.978;7.034;2022-09-01T05:43:23;15.10;99.90
31597;DHT22;18201;50.978;7.034;2022-09-01T05:44:27;15.10;99.90
31597;DHT22;18201;50.978;7.034;2022-09-01T05:45:29;15.00;99.90
31597;DHT22;18201;50.978;7.034;2022-09-01T05:46:30;15.10;99.90
31597;DHT22;18201;50.978;7.034;2022-09-01T05:47:32;15.00;99.90
31597;DHT22;18201;50.978;7.034;2022-09-01T05:48:36;15.00;99.90
31597;DHT22;18201;50.978;7.034;2022-09-01T05:49:40;15.10;99.90
31597;DHT22;18201;50.978;7.034;2022-09-01T05:50:41;15.00;99.90
31597;DHT22;18201;50.978;7.034;2022-09-01T05:51:48;15.00;99.90
31597;DHT22;18201;50.978;7.034;2022-09-01T05:52:51;15.00;99.90
31597;DHT22;18201;50.978;7.034;2022-09-01T05:53:54;15.00;99.90
31597;DHT22;18201;50.978;7.034;2022-09-01T05:54:58;15.00;99.90
31597;DHT22;18201;50.978;7.034;2022-09-01T05:56:05;15.00;99.90
31597;DHT22;18201;50.978;7.034;2022-09-01T05:57:07;15.10;99.90
31597;DHT22;18201;50.978;7.034;2022-09-01T05:58:10;15.10;99.90
31597;DHT22;18201;50.978;7.034;2022-09-01T05:59:14;15.10;99.90
31597;DHT22;18201;50.978;7.034;2022-09-01T06:00:17;15.00;99.90
31597;DHT22;18201;50.978;7.034;2022-09-01T06:01:21;15.10;99.90
31597;DHT22;18201;50.978;7.034;2022-09-01T06:02:24;15.10;99.90
31597;DHT22;18201;50.978;7.034;2022-09-01T06:03:27;15.00;99.90
31597;DHT22;18201;50.978;7.034;2022-09-01T06:04:29;15.10;99.90
31597;DHT22;18201;50.978;7.034;2022-09-01T06:05:33;15.10;99.90
31597;DHT22;18201;50.978;7.034;2022-09-01T06:06:37;15.10;99.90
31597;DHT22;18201;50.978;7.034;2022-09-01T06:07:40;15.10;99.90
31597;DHT22;18201;50.978;7.034;2022-09-01T06:08:42;15.10;99.90
31597;DHT22;18201;50.978;7.034;2022-09-01T06:09:48;15.10;99.90
31597;DHT22;18201;50.978;7.034;2022-09-01T06:10:50;15.10;99.90
31597;DHT22;18201;50.978;7.034;2022-09-01T06:11:52;15.10;99.90
31597;DHT22;18201;50.978;7.034;2022-09-01T06:12:56;15.20;99.90
31597;DHT22;18201;50.978;7.034;2022-09-01T06:14:02;15.20;99.90
31597;DHT22;18201;50.978;7.034;2022-09-01T06:15:06;15.20;99.90
31597;DHT22;18201;50.978;7.034;2022-09-01T06:16:15;15.20;99.90
31597;DHT22;18201;50.978;7.034;2022-09-01T06:17:17;15.20;99.90
31597;DHT22;18201;50.978;7.034;2022-09-01T06:18:21;15.20;99.90
31597;DHT22;18201;50.978;7.034;2022-09-01T06:19:27;15.30;99.90
31597;DHT22;18201;50.978;7.034;2022-09-01T06:20:28;15.30;99.90
31597;DHT22;18201;50.978;7.034;2022-09-01T06:21:30;15.30;99.90
31597;DHT22;18201;50.978;7.034;2022-09-01T06:22:33;15.30;99.90
31597;DHT22;18201;50.978;7.034;2022-09-01T06:23:36;15.30;99.90
31597;DHT22;18201;50.978;7.034;2022-09-01T06:24:38;15.30;99.90
31597;DHT22;18201;50.978;7.034;2022-09-01T06:25:40;15.30;99.90
31597;DHT22;18201;50.978;7.034;2022-09-01T06:26:45;15.30;99.90
31597;DHT22;18201;50.978;7.034;2022-09-01T06:27:46;15.40;99.90
31597;DHT22;18201;50.978;7.034;2022-09-01T06:28:49;15.40;99.90
31597;DHT22;18201;50.978;7.034;2022-09-01T06:29:55;15.40;99.90
31597;DHT22;18201;50.978;7.034;2022-09-01T06:30:57;15.40;99.90
31597;DHT22;18201;50.978;7.034;2022-09-01T06:31:58;15.40;99.90
31597;DHT22;18201;50.978;7.034;2022-09-01T06:33:02;15.40;99.90
31597;DHT22;18201;50.978;7.034;2022-09-01T06:34:08;15.50;99.90
31597;DHT22;18201;50.978;7.034;2022-09-01T06:35:17;15.50;99.90
31597;DHT22;18201;50.978;7.034;2022-09-01T06:36:20;15.50;99.90
31597;DHT22;18201;50.978;7.034;2022-09-01T06:37:23;15.50;99.90
31597;DHT22;18201;50.978;7.034;2022-09-01T06:38:24;15.50;99.90
31597;DHT22;18201;50.978;7.034;2022-09-01T06:39:26;15.60;99.90
31597;DHT22;18201;50.978;7.034;2022-09-01T06:40:28;15.60;99.90
31597;DHT22;18201;50.978;7.034;2022-09-01T06:41:30;15.60;99.90
31597;DHT22;18201;50.978;7.034;2022-09-01T06:42:32;15.60;99.90
31597;DHT22;18201;50.978;7.034;2022-09-01T06:43:34;15.70;99.90
31597;DHT22;18201;50.978;7.034;2022-09-01T06:44:37;15.70;99.90
31597;DHT22;18201;50.978;7.034;2022-09-01T06:45:42;15.70;99.90
31597;DHT22;18201;50.978;7.034;2022-09-01T06:46:44;15.70;99.90
31597;DHT22;18201;50.978;7.034;2022-09-01T06:47:46;15.80;99.90
31597;DHT22;18201;50.978;7.034;2022-09-01T06:48:50;15.80;99.90
31597;DHT22;18201;50.978;7.034;2022-09-01T06:49:53;15.80;99.90
31597;DHT22;18201;50.978;7.034;2022-09-01T06:50:59;15.90;99.90
31597;DHT22;18201;50.978;7.034;2022-09-01T06:52:03;15.90;99.90
31597;DHT22;18201;50.978;7.034;2022-09-01T06:53:04;15.90;99.90
31597;DHT22;18201;50.978;7.034;2022-09-01T06:54:10;16.00;99.90
31597;DHT22;18201;50.978;7.034;2022-09-01T06:55:14;16.10;99.90
31597;DHT22;18201;50.978;7.034;2022-09-01T06:56:16;16.20;99.90
31597;DHT22;18201;50.978;7.034;2022-09-01T06:57:19;16.30;99.90
31597;DHT22;18201;50.978;7.034;2022-09-01T06:58:21;16.30;99.90
31597;DHT22;18201;50.978;7.034;2022-09-01T06:59:27;16.30;99.90
31597;DHT22;18201;50.978;7.034;2022-09-01T07:00:31;16.40;99.90
31597;DHT22;18201;50.978;7.034;2022-09-01T07:01:36;16.40;99.90
31597;DHT22;18201;50.978;7.034;2022-09-01T07:02:38;16.50;99.90
31597;DHT22;18201;50.978;7.034;2022-09-01T07:03:43;16.50;99.90
31597;DHT22;18201;50.978;7.034;2022-09-01T07:04:45;16.60;99.90
31597;DHT22;18201;50.978;7.034;2022-09-01T07:05:49;16.60;99.90
31597;DHT22;18201;50.978;7.034;2022-09-01T07:06:52;16.60;99.90
31597;DHT22;18201;50.978;7.034;2022-09-01T07:07:54;16.60;99.90
31597;DHT22;18201;50.978;7.034;2022-09-01T07:08:56;16.60;99.90
31597;DHT22;18201;50.978;7.034;2022-09-01T07:09:58;16.70;99.90
31597;DHT22;18201;50.978;7.034;2022-09-01T07:10:59;16.70;99.90
31597;DHT22;18201;50.978;7.034;2022-09-01T07:12:05;16.70;99.90
31597;DHT22;18201;50.978;7.034;2022-09-01T07:13:07;16.80;99.90
31597;DHT22;18201;50.978;7.034;2022-09-01T07:14:09;16.80;99.90
31597;DHT22;18201;50.978;7.034;2022-09-01T07:15:15;16.80;99.90
31597;DHT22;18201;50.978;7.034;2022-09-01T07:16:17;16.80;99.90
31597;DHT22;18201;50.978;7.034;2022-09-01T07:17:24;16.80;99.90
31597;DHT22;18201;50.978;7.034;2022-09-01T07:18:26;16.80;99.90
31597;DHT22;18201;50.978;7.034;2022-09-01T07:19:30;16.80;99.90
31597;DHT22;18201;50.978;7.034;2022-09-01T07:20:35;16.80;99.90
31597;DHT22;18201;50.978;7.034;2022-09-01T07:21:39;16.80;99.90
31597;DHT22;18201;50.978;7.034;2022-09-01T07:22:40;16.80;99.90
31597;DHT22;18201;50.978;7.034;2022-09-01T07:23:42;16.80;99.90
31597;DHT22;18201;50.978;7.034;2022-09-01T07:24:45;16.80;99.90
31597;DHT22;18201;50.978;7.034;2022-09-01T07:25:49;16.80;99.90
31597;DHT22;18201;50.978;7.034;2022-09-01T07:26:54;16.80;99.90
31597;DHT22;18201;50.978;7.034;2022-09-01T07:27:55;16.80;99.90
31597;DHT22;18201;50.978;7.034;2022-09-01T07:28:59;16.80;99.90
31597;DHT22;18201;50.978;7.034;2022-09-01T07:30:03;16.90;99.90
31597;DHT22;18201;50.978;7.034;2022-09-01T07:31:16;16.90;99.90
31597;DHT22;18201;50.978;7.034;2022-09-01T07:32:20;16.90;99.90
31597;DHT22;18201;50.978;7.034;2022-09-01T07:33:24;16.90;99.90
31597;DHT22;18201;50.978;7.034;2022-09-01T07:34:27;16.90;99.90
31597;DHT22;18201;50.978;7.034;2022-09-01T07:35:29;17.00;99.90
31597;DHT22;18201;50.978;7.034;2022-09-01T07:36:36;17.00;99.90
31597;DHT22;18201;50.978;7.034;2022-09-01T07:37:38;17.10;99.90
31597;DHT22;18201;50.978;7.034;2022-09-01T07:38:39;17.20;99.90
31597;DHT22;18201;50.978;7.034;2022-09-01T07:39:42;17.20;99.90
31597;DHT22;18201;50.978;7.034;2022-09-01T07:40:45;17.30;99.90
31597;DHT22;18201;50.978;7.034;2022-09-01T07:41:47;17.30;99.90
31597;DHT22;18201;50.978;7.034;2022-09-01T07:42:53;17.50;99.90
31597;DHT22;18201;50.978;7.034;2022-09-01T07:43:56;17.60;99.90
31597;DHT22;18201;50.978;7.034;2022-09-01T07:45:00;17.60;99.90
31597;DHT22;18201;50.978;7.034;2022-09-01T07:46:04;17.70;99.90
31597;DHT22;18201;50.978;7.034;2022-09-01T07:47:06;17.70;99.90
31597;DHT22;18201;50.978;7.034;2022-09-01T07:48:08;17.90;99.90
31597;DHT22;18201;50.978;7.034;2022-09-01T07:49:12;17.90;99.90
31597;DHT22;18201;50.978;7.034;2022-09-01T07:50:14;18.10;99.90
31597;DHT22;18201;50.978;7.034;2022-09-01T07:51:16;18.20;99.90
31597;DHT22;18201;50.978;7.034;2022-09-01T07:52:19;18.20;99.90
31597;DHT22;18201;50.978;7.034;2022-09-01T07:53:22;18.20;99.90
31597;DHT22;18201;50.978;7.034;2022-09-01T07:54:24;18.20;99.90
31597;DHT22;18201;50.978;7.034;2022-09-01T07:55:25;18.20;99.90
31597;DHT22;18201;50.978;7.034;2022-09-01T07:56:28;18.20;99.90
31597;DHT22;18201;50.978;7.034;2022-09-01T07:57:30;18.20;99.90
31597;DHT22;18201;50.978;7.034;2022-09-01T07:58:32;18.30;99.90
31597;DHT22;18201;50.978;7.034;2022-09-01T07:59:34;18.30;99.90
31597;DHT22;18201;50.978;7.034;2022-09-01T08:00:35;18.40;99.90
31597;DHT22;18201;50.978;7.034;2022-09-01T08:01:37;18.40;99.90
31597;DHT22;18201;50.978;7.034;2022-09-01T08:02:40;18.50;99.90
31597;DHT22;18201;50.978;7.034;2022-09-01T08:03:41;18.50;99.90
31597;DHT22;18201;50.978;7.034;2022-09-01T08:04:44;18.60;99.90
31597;DHT22;18201;50.978;7.034;2022-09-01T08:05:46;18.90;99.90
31597;DHT22;18201;50.978;7.034;2022-09-01T08:06:51;18.90;99.90
31597;DHT22;18201;50.978;7.034;2022-09-01T08:07:53;19.00;99.90
31597;DHT22;18201;50.978;7.034;2022-09-01T08:08:57;19.10;99.90
31597;DHT22;18201;50.978;7.034;2022-09-01T08:09:58;19.10;99.90
31597;DHT22;18201;50.978;7.034;2022-09-01T08:11:00;19.10;99.90
31597;DHT22;18201;50.978;7.034;2022-09-01T08:12:03;19.10;99.90
31597;DHT22;18201;50.978;7.034;2022-09-01T08:13:05;19.10;99.90
31597;DHT22;18201;50.978;7.034;2022-09-01T08:14:06;19.10;99.90
31597;DHT22;18201;50.978;7.034;2022-09-01T08:15:10;19.10;99.90
31597;DHT22;18201;50.978;7.034;2022-09-01T08:16:13;19.10;99.90
31597;DHT22;18201;50.978;7.034;2022-09-01T08:17:15;19.10;99.90
31597;DHT22;18201;50.978;7.034;2022-09-01T08:18:17;19.10;99.90
31597;DHT22;18201;50.978;7.034;2022-09-01T08:19:18;19.20;99.90
31597;DHT22;18201;50.978;7.034;2022-09-01T08:20:22;19.30;99.90
31597;DHT22;18201;50.978;7.034;2022-09-01T08:21:24;19.30;99.90
31597;DHT22;18201;50.978;7.034;2022-09-01T08:22:26;19.50;99.90
31597;DHT22;18201;50.978;7.034;2022-09-01T08:23:27;19.50;99.90
31597;DHT22;18201;50.978;7.034;2022-09-01T08:24:29;19.50;99.90
31597;DHT22;18201;50.978;7.034;2022-09-01T08:25:31;19.50;99.90
31597;DHT22;18201;50.978;7.034;2022-09-01T08:26:34;19.60;99.90
31597;DHT22;18201;50.978;7.034;2022-09-01T08:27:36;19.60;99.90
31597;DHT22;18201;50.978;7.034;2022-09-01T08:28:39;19.70;99.90
31597;DHT22;18201;50.978;7.034;2022-09-01T08:29:41;19.70;99.90
31597;DHT22;18201;50.978;7.034;2022-09-01T08:30:43;19.70;99.90
31597;DHT22;18201;50.978;7.034;2022-09-01T08:31:46;19.70;99.90
31597;DHT22;18201;50.978;7.034;2022-09-01T08:32:47;19.60;99.90
31597;DHT22;18201;50.978;7.034;2022-09-01T08:33:49;19.60;99.90
31597;DHT22;18201;50.978;7.034;2022-09-01T08:34:50;19.60;99.90
31597;DHT22;18201;50.978;7.034;2022-09-01T08:35:54;19.70;99.90
31597;DHT22;18201;50.978;7.034;2022-09-01T08:36:56;19.70;99.90
31597;DHT22;18201;50.978;7.034;2022-09-01T08:37:58;19.70;99.90
31597;DHT22;18201;50.978;7.034;2022-09-01T08:39:00;19.70;99.90
31597;DHT22;18201;50.978;7.034;2022-09-01T08:40:02;19.80;99.90
31597;DHT22;18201;50.978;7.034;2022-09-01T08:41:05;19.90;99.90
31597;DHT22;18201;50.978;7.034;2022-09-01T08:42:19;19.90;99.90
31597;DHT22;18201;50.978;7.034;2022-09-01T08:43:33;20.00;99.90
31597;DHT22;18201;50.978;7.034;2022-09-01T08:44:40;20.00;99.90
31597;DHT22;18201;50.978;7.034;2022-09-01T08:45:47;20.00;99.90
31597;DHT22;18201;50.978;7.034;2022-09-01T08:46:54;20.00;99.90
31597;DHT22;18201;50.978;7.034;2022-09-01T08:48:01;20.00;99.90
31597;DHT22;18201;50.978;7.034;2022-09-01T08:49:13;20.00;99.90
31597;DHT22;18201;50.978;7.034;2022-09-01T08:50:14;20.00;99.90
31597;DHT22;18201;50.978;7.034;2022-09-01T08:51:26;20.10;99.90
31597;DHT22;18201;50.978;7.034;2022-09-01T08:52:34;20.00;99.90
31597;DHT22;18201;50.978;7.034;2022-09-01T08:53:40;20.20;99.90
31597;DHT22;18201;50.978;7.034;2022-09-01T08:54:45;20.20;99.90
31597;DHT22;18201;50.978;7.034;2022-09-01T08:55:52;20.10;99.90
31597;DHT22;18201;50.978;7.034;2022-09-01T08:56:59;20.10;99.90
31597;DHT22;18201;50.978;7.034;2022-09-01T08:58:01;20.20;99.90
31597;DHT22;18201;50.978;7.034;2022-09-01T08:59:06;20.20;99.90
31597;DHT22;18201;50.978;7.034;2022-09-01T09:00:11;20.30;99.90
31597;DHT22;18201;50.978;7.034;2022-09-01T09:01:19;20.30;99.90
31597;DHT22;18201;50.978;7.034;2022-09-01T09:02:44;20.30;99.90
31597;DHT22;18201;50.978;7.034;2022-09-01T09:04:02;20.40;99.90
31597;DHT22;18201;50.978;7.034;2022-09-01T09:05:22;20.50;99.90
31597;DHT22;18201;50.978;7.034;2022-09-01T09:06:33;20.60;99.90
31597;DHT22;18201;50.978;7.034;2022-09-01T09:09:08;20.50;99.90
31597;DHT22;18201;50.978;7.034;2022-09-01T09:10:15;20.50;99.90
31597;DHT22;18201;50.978;7.034;2022-09-01T09:11:36;20.50;99.90
31597;DHT22;18201;50.978;7.034;2022-09-01T09:40:58;21.60;99.90
31597;DHT22;18201;50.978;7.034;2022-09-01T10:48:26;31.40;68.70
31597;DHT22;18201;50.978;7.034;2022-09-01T10:50:22;30.30;63.80
31597;DHT22;18201;50.978;7.034;2022-09-01T10:51:43;29.30;64.00
31597;DHT22;18201;50.978;7.034;2022-09-01T11:07:29;28.70;76.10
31597;DHT22;18201;50.978;7.034;2022-09-01T11:09:02;31.00;68.20
31597;DHT22;18201;50.978;7.034;2022-09-01T11:11:55;33.00;57.50
31597;DHT22;18201;50.978;7.034;2022-09-01T11:13:15;32.30;54.20
31597;DHT22;18201;50.978;7.034;2022-09-01T11:14:22;31.10;56.20
31597;DHT22;18201;50.978;7.034;2022-09-01T11:15:35;30.80;57.40
31597;DHT22;18201;50.978;7.034;2022-09-01T11:16:38;30.50;57.50
31597;DHT22;18201;50.978;7.034;2022-09-01T11:17:55;30.20;59.00
31597;DHT22;18201;50.978;7.034;2022-09-01T11:20:35;29.40;60.10
31597;DHT22;18201;50.978;7.034;2022-09-01T11:22:08;29.60;67.00
31597;DHT22;18201;50.978;7.034;2022-09-01T11:23:21;30.70;61.40
31597;DHT22;18201;50.978;7.034;2022-09-01T11:24:44;29.90;59.20
31597;DHT22;18201;50.978;7.034;2022-09-01T11:25:47;29.50;60.20
31597;DHT22;18201;50.978;7.034;2022-09-01T11:26:50;29.10;60.10
31597;DHT22;18201;50.978;7.034;2022-09-01T11:28:08;29.20;62.80
31597;DHT22;18201;50.978;7.034;2022-09-01T11:30:48;32.30;61.30
31597;DHT22;18201;50.978;7.034;2022-09-01T11:31:52;33.80;57.80
31597;DHT22;18201;50.978;7.034;2022-09-01T11:32:58;35.30;55.60
31597;DHT22;18201;50.978;7.034;2022-09-01T11:34:16;36.50;52.70
31597;DHT22;18201;50.978;7.034;2022-09-01T11:35:21;35.40;49.10
31597;DHT22;18201;50.978;7.034;2022-09-01T11:36:28;35.70;48.70
31597;DHT22;18201;50.978;7.034;2022-09-01T11:37:31;34.80;47.50
31597;DHT22;18201;50.978;7.034;2022-09-01T11:38:45;33.70;47.50
31597;DHT22;18201;50.978;7.034;2022-09-01T11:40:27;32.80;48.50
31597;DHT22;18201;50.978;7.034;2022-09-01T11:41:34;31.70;51.40
31597;DHT22;18201;50.978;7.034;2022-09-01T11:42:58;31.10;51.90
31597;DHT22;18201;50.978;7.034;2022-09-01T11:48:35;29.50;55.50
31597;DHT22;18201;50.978;7.034;2022-09-01T11:49:45;29.60;56.80
31597;DHT22;18201;50.978;7.034;2022-09-01T11:50:56;29.30;56.00
31597;DHT22;18201;50.978;7.034;2022-09-01T11:52:00;29.10;56.40
31597;DHT22;18201;50.978;7.034;2022-09-01T11:53:04;29.00;57.00
31597;DHT22;18201;50.978;7.034;2022-09-01T11:54:09;28.80;57.30
31597;DHT22;18201;50.978;7.034;2022-09-01T11:55:11;30.10;62.00
31597;DHT22;18201;50.978;7.034;2022-09-01T11:56:15;31.10;57.00
31597;DHT22;18201;50.978;7.034;2022-09-01T11:57:20;31.60;56.30
31597;DHT22;18201;50.978;7.034;2022-09-01T11:58:32;31.40;55.10
31597;DHT22;18201;50.978;7.034;2022-09-01T12:00:05;31.10;54.70
31597;DHT22;18201;50.978;7.034;2022-09-01T12:03:52;30.10;55.40
31597;DHT22;18201;50.978;7.034;2022-09-01T12:05:41;29.70;56.10
31597;DHT22;18201;50.978;7.034;2022-09-01T12:08:14;29.30;57.40
31597;DHT22;18201;50.978;7.034;2022-09-01T12:09:19;29.50;58.90
31597;DHT22;18201;50.978;7.034;2022-09-01T12:10:27;30.10;58.10
31597;DHT22;18201;50.978;7.034;2022-09-01T12:11:32;30.10;55.70
31597;DHT22;18201;50.978;7.034;2022-09-01T12:12:34;29.70;56.00
31597;DHT22;18201;50.978;7.034;2022-09-01T12:13:39;30.40;57.60
31597;DHT22;18201;50.978;7.034;2022-09-01T12:14:40;31.20;57.10
31597;DHT22;18201;50.978;7.034;2022-09-01T12:15:58;31.90;54.40
31597;DHT22;18201;50.978;7.034;2022-09-01T12:17:06;32.70;52.80
31597;DHT22;18201;50.978;7.034;2022-09-01T12:18:13;33.00;53.20
31597;DHT22;18201;50.978;7.034;2022-09-01T12:19:22;32.90;52.30
31597;DHT22;18201;50.978;7.034;2022-09-01T12:20:27;33.30;51.00
31597;DHT22;18201;50.978;7.034;2022-09-01T12:21:31;33.70;50.70
31597;DHT22;18201;50.978;7.034;2022-09-01T12:22:33;33.20;50.70
31597;DHT22;18201;50.978;7.034;2022-09-01T12:23:36;32.70;50.90
31597;DHT22;18201;50.978;7.034;2022-09-01T12:24:44;32.20;51.20
31597;DHT22;18201;50.978;7.034;2022-09-01T12:25:45;31.80;51.80
31597;DHT22;18201;50.978;7.034;2022-09-01T12:26:49;31.90;52.50
31597;DHT22;18201;50.978;7.034;2022-09-01T12:27:53;32.20;52.90
31597;DHT22;18201;50.978;7.034;2022-09-01T12:28:55;32.40;52.30
31597;DHT22;18201;50.978;7.034;2022-09-01T12:29:57;32.60;52.20
31597;DHT22;18201;50.978;7.034;2022-09-01T12:31:00;32.90;51.80
31597;DHT22;18201;50.978;7.034;2022-09-01T12:32:04;33.10;51.10
31597;DHT22;18201;50.978;7.034;2022-09-01T12:33:06;33.10;50.70
31597;DHT22;18201;50.978;7.034;2022-09-01T12:34:23;33.00;49.40
31597;DHT22;18201;50.978;7.034;2022-09-01T12:35:26;33.10;50.40
31597;DHT22;18201;50.978;7.034;2022-09-01T12:36:30;33.20;50.60
31597;DHT22;18201;50.978;7.034;2022-09-01T12:37:32;33.30;50.20
31597;DHT22;18201;50.978;7.034;2022-09-01T12:38:33;33.50;50.80
31597;DHT22;18201;50.978;7.034;2022-09-01T12:39:37;33.60;49.20
31597;DHT22;18201;50.978;7.034;2022-09-01T12:40:39;33.60;49.20
31597;DHT22;18201;50.978;7.034;2022-09-01T12:41:42;33.60;48.20
31597;DHT22;18201;50.978;7.034;2022-09-01T12:42:50;33.50;48.80
31597;DHT22;18201;50.978;7.034;2022-09-01T12:43:52;33.60;48.60
31597;DHT22;18201;50.978;7.034;2022-09-01T12:44:55;33.40;47.30
31597;DHT22;18201;50.978;7.034;2022-09-01T12:45:58;33.20;48.50
31597;DHT22;18201;50.978;7.034;2022-09-01T12:47:02;33.00;47.60
31597;DHT22;18201;50.978;7.034;2022-09-01T12:48:30;33.10;48.50
31597;DHT22;18201;50.978;7.034;2022-09-01T12:49:37;33.40;47.80
31597;DHT22;18201;50.978;7.034;2022-09-01T12:50:45;33.40;46.90
31597;DHT22;18201;50.978;7.034;2022-09-01T12:51:46;32.80;46.40
31597;DHT22;18201;50.978;7.034;2022-09-01T12:52:50;32.50;47.30
31597;DHT22;18201;50.978;7.034;2022-09-01T12:54:11;32.70;48.70
31597;DHT22;18201;50.978;7.034;2022-09-01T12:55:17;32.30;47.20
31597;DHT22;18201;50.978;7.034;2022-09-01T12:56:25;32.10;48.40
31597;DHT22;18201;50.978;7.034;2022-09-01T12:57:32;32.40;50.00
31597;DHT22;18201;50.978;7.034;2022-09-01T12:58:34;32.60;50.00
31597;DHT22;18201;50.978;7.034;2022-09-01T12:59:38;32.80;50.40
31597;DHT22;18201;50.978;7.034;2022-09-01T13:00:54;32.80;49.70
31597;DHT22;18201;50.978;7.034;2022-09-01T13:01:57;31.80;48.40
31597;DHT22;18201;50.978;7.034;2022-09-01T13:03:12;31.90;50.40
31597;DHT22;18201;50.978;7.034;2022-09-01T13:04:24;32.30;50.80
31597;DHT22;18201;50.978;7.034;2022-09-01T13:05:30;32.50;49.80
31597;DHT22;18201;50.978;7.034;2022-09-01T13:06:31;32.60;50.70
31597;DHT22;18201;50.978;7.034;2022-09-01T13:07:33;32.80;50.60
31597;DHT22;18201;50.978;7.034;2022-09-01T13:08:34;33.10;49.70
31597;DHT22;18201;50.978;7.034;2022-09-01T13:09:36;32.90;49.80
31597;DHT22;18201;50.978;7.034;2022-09-01T13:10:39;33.20;49.70
31597;DHT22;18201;50.978;7.034;2022-09-01T13:11:44;33.10;49.30
31597;DHT22;18201;50.978;7.034;2022-09-01T13:12:47;33.00;49.60
31597;DHT22;18201;50.978;7.034;2022-09-01T13:13:48;33.30;49.30
31597;DHT22;18201;50.978;7.034;2022-09-01T13:14:50;33.00;48.30
31597;DHT22;18201;50.978;7.034;2022-09-01T13:15:52;33.10;48.90
31597;DHT22;18201;50.978;7.034;2022-09-01T13:16:55;32.60;48.00
31597;DHT22;18201;50.978;7.034;2022-09-01T13:17:56;32.20;49.40
31597;DHT22;18201;50.978;7.034;2022-09-01T13:18:58;32.50;50.90
31597;DHT22;18201;50.978;7.034;2022-09-01T13:20:00;32.80;51.10
31597;DHT22;18201;50.978;7.034;2022-09-01T13:21:03;33.10;50.30
31597;DHT22;18201;50.978;7.034;2022-09-01T13:22:06;33.20;49.60
31597;DHT22;18201;50.978;7.034;2022-09-01T13:23:07;33.20;50.00
31597;DHT22;18201;50.978;7.034;2022-09-01T13:24:09;33.10;48.70
31597;DHT22;18201;50.978;7.034;2022-09-01T13:25:11;32.90;48.40
31597;DHT22;18201;50.978;7.034;2022-09-01T13:26:28;32.80;48.90
31597;DHT22;18201;50.978;7.034;2022-09-01T13:28:10;32.60;49.00
31597;DHT22;18201;50.978;7.034;2022-09-01T13:29:28;32.50;49.90
31597;DHT22;18201;50.978;7.034;2022-09-01T13:31:21;32.40;50.30
31597;DHT22;18201;50.978;7.034;2022-09-01T13:33:06;32.60;50.90
31597;DHT22;18201;50.978;7.034;2022-09-01T13:34:46;33.00;50.90
31597;DHT22;18201;50.978;7.034;2022-09-01T13:36:13;33.10;50.30
31597;DHT22;18201;50.978;7.034;2022-09-01T13:37:15;33.20;49.40
31597;DHT22;18201;50.978;7.034;2022-09-01T13:38:18;33.10;49.00
31597;DHT22;18201;50.978;7.034;2022-09-01T13:39:20;33.00;49.20